Time;durP1;ratioP1;P1;durP2;ratioP2;P2;SDS_P1;SDS_P2;PMS_P1;PMS_P2;Temp;Humidity;BMP_temperature;BMP_pressure;BME280_temperature;BME280_humidity;BME280_pressure;Samples;Min_cycle;Max_cycle;Signal;HPM_P1;HPM_P2
2023/02/27 00:01:56;;;;;;;;;;;;;;;;;;5090609;28;19915;-69
2023/02/27 00:04:22;;;;;;;;;;;;;;;;;;5090898;28;19949;-69
2023/02/27 00:06:48;;;;;;;;;;;;;;;;;;5090834;28;19912;-69
2023/02/27 00:09:14;;;;;;;;;;;;;;;;;;5090374;28;19908;-69
2023/02/27 00:11:41;;;;;;;;;;;;;;;;;;5090788;28;19935;-68
2023/02/27 00:14:07;;;;;;;;;;;;;;;;;;5090687;28;19912;-68
2023/02/27 00:16:33;;;;;;;;;;;;;;;;;;5090238;28;19909;-68
2023/02/27 00:19:01;;;;;;;;;;;;;;;;;;5090468;28;19939;-68
2023/02/27 00:21:27;;;;;;;;;;;;;;;;;;5090499;28;19943;-68
2023/02/27 00:23:53;;;;;;;;;;;;;;;;;;5088875;28;19955;-68
2023/02/27 00:26:19;;;;;;;;;;;;;;;;;;5090472;28;20379;-69
2023/02/27 00:28:44;;;;;;;;;;;;;;;;;;5088760;28;19935;-69
2023/02/27 00:31:10;;;;;;;;;;;;;;;;;;5089022;28;19914;-69
2023/02/27 00:33:36;;;;;;;;;;;;;;;;;;5090581;28;19909;-69
2023/02/27 00:36:03;;;;;;;;;;;;;;;;;;5089866;28;20301;-69
2023/02/27 00:38:28;;;;;;;;;;;;;;;;;;5098228;28;20023;-69
2023/02/27 00:40:54;;;;;;;;;;;;;;;;;;5110557;28;19908;-69
2023/02/27 00:43:20;;;;;;;;;;;;;;;;;;5110048;28;19915;-69
2023/02/27 00:45:46;;;;;;;;;;;;;;;;;;5110381;28;19912;-69
2023/02/27 00:48:12;;;;;;;;;;;;;;;;;;5110596;28;19955;-69
2023/02/27 00:50:38;;;;;;;;;;;;;;;;;;5082068;28;19917;-69
2023/02/27 00:53:04;;;;;;;;;;;;;;;;;;5096699;28;19915;-69
2023/02/27 00:55:30;;;;;;;;;;;;;;;;;;5078512;28;19912;-69
2023/02/27 00:57:56;;;;;;;;;;;;;;;;;;5096079;28;19912;-69
2023/02/27 01:00:22;;;;;;;;;;;;;;;;;;5096537;28;19919;-69
2023/02/27 01:02:48;;;;;;;;;;;;;;;;;;5096785;28;19908;-69
2023/02/27 01:05:14;;;;;;;;;;;;;;;;;;5096069;28;19916;-69
2023/02/27 01:07:40;;;;;;;;;;;;;;;;;;5096510;28;19965;-69
2023/02/27 01:10:05;;;;;;;;;;;;;;;;;;5096366;28;19908;-69
2023/02/27 01:12:31;;;;;;;;;;;;;;;;;;5095927;28;20003;-69
2023/02/27 01:14:57;;;;;;;;;;;;;;;;;;5078128;28;19908;-69
2023/02/27 01:17:23;;;;;;;;;;;;;;;;;;5096253;28;20360;-70
2023/02/27 01:19:49;;;;;;;;;;;;;;;;;;5095957;28;20332;-69
2023/02/27 01:22:15;;;;;;;;;;;;;;;;;;5096159;28;19908;-69
2023/02/27 01:24:41;;;;;;;;;;;;;;;;;;5096067;28;19974;-69
2023/02/27 01:27:07;;;;;;;;;;;;;;;;;;5095734;28;19912;-69
2023/02/27 01:29:33;;;;;;;;;;;;;;;;;;5096049;28;20279;-69
2023/02/27 01:31:59;;;;;;;;;;;;;;;;;;5095520;28;19930;-69
2023/02/27 01:34:25;;;;;;;;;;;;;;;;;;5095908;28;20347;-69
2023/02/27 01:36:51;;;;;;;;;;;;;;;;;;5077624;28;19914;-69
2023/02/27 01:39:17;;;;;;;;;;;;;;;;;;5095256;28;19952;-70
2023/02/27 01:41:43;;;;;;;;;;;;;;;;;;5095812;28;20015;-69
2023/02/27 01:44:09;;;;;;;;;;;;;;;;;;5095715;28;19953;-69
2023/02/27 01:46:35;;;;;;;;;;;;;;;;;;5095193;28;19908;-69
2023/02/27 01:49:00;;;;;;;;;;;;;;;;;;5095610;28;19908;-70
2023/02/27 01:51:26;;;;;;;;;;;;;;;;;;5077403;28;19909;-69
2023/02/27 01:53:52;;;;;;;;;;;;;;;;;;5095143;28;19908;-69
2023/02/27 01:56:18;;;;;;;;;;;;;;;;;;5095395;28;20323;-69
2023/02/27 01:58:44;;;;;;;;;;;;;;;;;;5095555;28;20390;-69
2023/02/27 02:01:10;;;;;;;;;;;;;;;;;;5094300;28;19933;-69
2023/02/27 02:03:36;;;;;;;;;;;;;;;;;;5094970;28;19956;-69
2023/02/27 02:06:03;;;;;;;;;;;;;;;;;;5077085;28;19915;-69
2023/02/27 02:08:28;;;;;;;;;;;;;;;;;;5094826;28;19908;-69
2023/02/27 02:10:54;;;;;;;;;;;;;;;;;;5077601;28;20368;-69
2023/02/27 02:13:20;;;;;;;;;;;;;;;;;;5095135;28;20002;-69
2023/02/27 02:15:46;;;;;;;;;;;;;;;;;;5094848;28;20288;-69
2023/02/27 02:18:12;;;;;;;;;;;;;;;;;;5095485;28;20305;-69
2023/02/27 02:20:38;;;;;;;;;;;;;;;;;;5095101;28;20280;-69
2023/02/27 02:23:04;;;;;;;;;;;;;;;;;;5076388;28;20332;-69
2023/02/27 02:25:30;;;;;;;;;;;;;;;;;;5094863;28;20334;-70
2023/02/27 02:27:56;;;;;;;;;;;;;;;;;;5094858;28;20326;-69
2023/02/27 02:30:22;;;;;;;;;;;;;;;;;;5076217;28;19955;-69
2023/02/27 02:32:48;;;;;;;;;;;;;;;;;;5094832;28;19908;-69
2023/02/27 02:35:14;;;;;;;;;;;;;;;;;;5076099;28;19962;-69
2023/02/27 02:37:40;;;;;;;;;;;;;;;;;;5076213;28;19919;-69
2023/02/27 02:40:05;;;;;;;;;;;;;;;;;;5094913;28;19912;-69
2023/02/27 02:42:31;;;;;;;;;;;;;;;;;;5094220;28;19942;-70
2023/02/27 02:44:57;;;;;;;;;;;;;;;;;;5076718;28;19915;-69
2023/02/27 02:47:23;;;;;;;;;;;;;;;;;;5076295;28;19909;-69
2023/02/27 02:49:49;;;;;;;;;;;;;;;;;;5094049;28;19919;-70
2023/02/27 02:52:15;;;;;;;;;;;;;;;;;;5094411;28;19912;-69
2023/02/27 02:54:41;;;;;;;;;;;;;;;;;;5094626;28;19908;-69
2023/02/27 02:57:07;;;;;;;;;;;;;;;;;;5075804;28;19915;-70
2023/02/27 02:59:33;;;;;;;;;;;;;;;;;;5094292;28;19922;-69
2023/02/27 03:01:59;;;;;;;;;;;;;;;;;;5094182;28;19912;-69
2023/02/27 03:04:26;;;;;;;;;;;;;;;;;;5093959;28;19908;-69
2023/02/27 03:06:52;;;;;;;;;;;;;;;;;;5094150;28;19912;-70
2023/02/27 03:09:18;;;;;;;;;;;;;;;;;;5075975;28;19938;-69
2023/02/27 03:11:44;;;;;;;;;;;;;;;;;;5093635;28;19912;-69
2023/02/27 03:14:10;;;;;;;;;;;;;;;;;;5093924;28;19912;-69
2023/02/27 03:16:36;;;;;;;;;;;;;;;;;;5094061;28;20412;-69
2023/02/27 03:19:02;;;;;;;;;;;;;;;;;;5093582;28;20062;-69
2023/02/27 03:21:28;;;;;;;;;;;;;;;;;;5093973;28;19908;-69
2023/02/27 03:23:54;;;;;;;;;;;;;;;;;;5075914;28;19915;-69
2023/02/27 03:26:20;;;;;;;;;;;;;;;;;;5093684;28;19912;-70
2023/02/27 03:28:46;;;;;;;;;;;;;;;;;;5093952;28;19914;-70
2023/02/27 03:31:12;;;;;;;;;;;;;;;;;;5094042;28;19912;-70
2023/02/27 03:33:38;;;;;;;;;;;;;;;;;;5093508;28;19908;-70
2023/02/27 03:36:04;;;;;;;;;;;;;;;;;;5093788;28;19915;-70
2023/02/27 03:38:30;;;;;;;;;;;;;;;;;;5093232;28;19950;-70
2023/02/27 03:40:56;;;;;;;;;;;;;;;;;;5075700;28;19958;-70
2023/02/27 03:43:22;;;;;;;;;;;;;;;;;;5093767;28;19912;-70
2023/02/27 03:45:48;;;;;;;;;;;;;;;;;;5093452;28;19919;-70
2023/02/27 03:48:14;;;;;;;;;;;;;;;;;;5093706;28;19915;-69
2023/02/27 03:50:40;;;;;;;;;;;;;;;;;;5093734;28;19912;-69
2023/02/27 03:53:06;;;;;;;;;;;;;;;;;;5093262;28;19916;-69
2023/02/27 03:55:32;;;;;;;;;;;;;;;;;;5093691;28;19908;-70
2023/02/27 03:57:58;;;;;;;;;;;;;;;;;;5093541;28;19943;-69
2023/02/27 04:00:24;;;;;;;;;;;;;;;;;;5093278;28;20360;-70
2023/02/27 04:02:50;;;;;;;;;;;;;;;;;;5093570;28;19912;-70
2023/02/27 04:05:16;;;;;;;;;;;;;;;;;;5075494;28;19909;-69
2023/02/27 04:07:42;;;;;;;;;;;;;;;;;;5074983;28;19908;-70
2023/02/27 04:10:08;;;;;;;;;;;;;;;;;;5093508;28;19912;-70
2023/02/27 04:12:34;;;;;;;;;;;;;;;;;;5075402;28;19962;-69
2023/02/27 04:15:00;;;;;;;;;;;;;;;;;;5093046;28;19963;-70
2023/02/27 04:17:26;;;;;;;;;;;;;;;;;;5075303;28;20360;-70
2023/02/27 04:19:52;;;;;;;;;;;;;;;;;;5093413;28;19962;-70
2023/02/27 04:22:18;;;;;;;;;;;;;;;;;;5093269;28;20374;-70
2023/02/27 04:24:44;;;;;;;;;;;;;;;;;;5094180;28;19908;-70
2023/02/27 04:27:10;;;;;;;;;;;;;;;;;;5097228;28;19919;-70
2023/02/27 04:29:36;;;;;;;;;;;;;;;;;;5078617;28;19931;-70
2023/02/27 04:32:02;;;;;;;;;;;;;;;;;;5078914;28;19947;-71
2023/02/27 04:34:28;;;;;;;;;;;;;;;;;;5097328;28;19915;-69
2023/02/27 04:36:54;;;;;;;;;;;;;;;;;;5078513;28;19916;-69
2023/02/27 04:39:20;;;;;;;;;;;;;;;;;;5096941;28;20010;-70
2023/02/27 04:41:46;;;;;;;;;;;;;;;;;;5078355;28;19908;-70
2023/02/27 04:44:11;;;;;;;;;;;;;;;;;;5097018;28;19914;-70
2023/02/27 04:46:37;;;;;;;;;;;;;;;;;;5096876;28;19959;-70
2023/02/27 04:49:03;;;;;;;;;;;;;;;;;;5096364;28;20451;-70
2023/02/27 04:51:29;;;;;;;;;;;;;;;;;;5078851;28;20387;-70
2023/02/27 04:53:55;;;;;;;;;;;;;;;;;;5096682;28;19908;-70
2023/02/27 04:56:21;;;;;;;;;;;;;;;;;;5096220;28;19970;-70
2023/02/27 04:58:49;;;;;;;;;;;;;;;;;;5078461;28;19923;-70
2023/02/27 05:01:15;;;;;;;;;;;;;;;;;;5078351;28;19908;-70
2023/02/27 05:03:41;;;;;;;;;;;;;;;;;;5077943;28;19915;-70
2023/02/27 05:06:07;;;;;;;;;;;;;;;;;;5096528;28;19909;-70
2023/02/27 05:08:33;;;;;;;;;;;;;;;;;;5096443;28;20321;-70
2023/02/27 05:10:59;;;;;;;;;;;;;;;;;;5095873;28;19923;-70
2023/02/27 05:13:25;;;;;;;;;;;;;;;;;;5095005;28;19908;-70
2023/02/27 05:15:51;;;;;;;;;;;;;;;;;;5077857;28;20372;-70
2023/02/27 05:18:17;;;;;;;;;;;;;;;;;;5094986;28;20382;-70
2023/02/27 05:20:43;;;;;;;;;;;;;;;;;;5095962;28;20369;-70
2023/02/27 05:23:09;;;;;;;;;;;;;;;;;;5095801;28;20323;-70
2023/02/27 05:25:34;;;;;;;;;;;;;;;;;;5094298;28;19998;-70
2023/02/27 05:28:00;;;;;;;;;;;;;;;;;;5094774;28;19908;-70
2023/02/27 05:30:26;;;;;;;;;;;;;;;;;;5076080;28;19908;-70
2023/02/27 05:32:52;;;;;;;;;;;;;;;;;;5093446;28;19914;-70
2023/02/27 05:35:18;;;;;;;;;;;;;;;;;;5095816;28;19908;-70
2023/02/27 05:37:44;;;;;;;;;;;;;;;;;;5077333;28;19916;-70
2023/02/27 05:40:11;;;;;;;;;;;;;;;;;;5077156;28;19918;-70
2023/02/27 05:42:37;;;;;;;;;;;;;;;;;;5077662;28;19908;-70
2023/02/27 05:45:03;;;;;;;;;;;;;;;;;;5093709;28;19961;-70
2023/02/27 05:47:29;;;;;;;;;;;;;;;;;;5093990;28;19916;-70
2023/02/27 05:49:55;;;;;;;;;;;;;;;;;;5094003;28;19916;-70
2023/02/27 05:52:20;;;;;;;;;;;;;;;;;;5075351;28;19908;-70
2023/02/27 05:54:46;;;;;;;;;;;;;;;;;;5093495;28;20254;-70
2023/02/27 05:57:12;;;;;;;;;;;;;;;;;;5093293;28;19908;-70
2023/02/27 05:59:42;;;;;;;;;;;;;;;;;;5074733;28;19925;-70
2023/02/27 06:02:08;;;;;;;;;;;;;;;;;;5093203;28;20352;-70
2023/02/27 06:04:34;;;;;;;;;;;;;;;;;;5093347;28;19951;-70
2023/02/27 06:07:00;;;;;;;;;;;;;;;;;;5092777;28;19912;-70
2023/02/27 06:09:26;;;;;;;;;;;;;;;;;;5091905;28;19962;-75
2023/02/27 06:11:52;;;;;;;;;;;;;;;;;;5095251;28;19912;-74
2023/02/27 06:14:18;;;;;;;;;;;;;;;;;;5094625;28;19959;-76
2023/02/27 06:16:44;;;;;;;;;;;;;;;;;;5094702;28;20379;-73
2023/02/27 06:19:10;;;;;;;;;;;;;;;;;;5094447;28;20007;-73
2023/02/27 06:21:36;;;;;;;;;;;;;;;;;;5091836;28;19911;-69
2023/02/27 06:24:02;;;;;;;;;;;;;;;;;;5091102;28;20007;-69
2023/02/27 06:26:28;;;;;;;;;;;;;;;;;;5091817;28;19915;-70
2023/02/27 06:28:54;;;;;;;;;;;;;;;;;;5091715;28;19962;-71
2023/02/27 06:31:20;;;;;;;;;;;;;;;;;;5090566;28;20253;-69
2023/02/27 06:33:46;;;;;;;;;;;;;;;;;;5080388;28;20269;-69
2023/02/27 06:36:12;;;;;;;;;;;;;;;;;;5059055;28;19915;-68
2023/02/27 06:38:38;;;;;;;;;;;;;;;;;;5089535;28;19973;-67
2023/02/27 06:41:03;;;;;;;;;;;;;;;;;;5088461;28;19912;-67
2023/02/27 06:43:33;;;;;;;;;;;;;;;;;;5087141;28;19912;-68
2023/02/27 06:45:59;;;;;;;;;;;;;;;;;;5086243;28;19920;-70
2023/02/27 06:48:25;;;;;;;;;;;;;;;;;;5089605;28;20002;-70
2023/02/27 06:50:51;;;;;;;;;;;;;;;;;;5091340;28;19959;-69
2023/02/27 06:53:17;;;;;;;;;;;;;;;;;;5086274;28;20007;-70
2023/02/27 06:55:44;;;;;;;;;;;;;;;;;;5092046;28;20643;-71
2023/02/27 06:58:10;;;;;;;;;;;;;;;;;;5091113;28;20422;-70
2023/02/27 07:00:36;;;;;;;;;;;;;;;;;;5090607;28;19913;-69
2023/02/27 07:03:03;;;;;;;;;;;;;;;;;;5089744;28;19908;-70
2023/02/27 07:05:29;;;;;;;;;;;;;;;;;;5091055;28;19915;-71
2023/02/27 07:07:55;;;;;;;;;;;;;;;;;;5092716;28;20257;-71
2023/02/27 07:10:21;;;;;;;;;;;;;;;;;;5092047;28;19908;-71
2023/02/27 07:12:47;;;;;;;;;;;;;;;;;;5093070;28;20018;-72
2023/02/27 07:15:13;;;;;;;;;;;;;;;;;;5074868;28;19915;-69
2023/02/27 07:17:39;;;;;;;;;;;;;;;;;;5074770;28;19915;-70
2023/02/27 07:20:05;;;;;;;;;;;;;;;;;;5092480;28;19922;-69
2023/02/27 07:22:31;;;;;;;;;;;;;;;;;;5090053;28;20360;-67
2023/02/27 07:24:57;;;;;;;;;;;;;;;;;;5091880;28;19951;-68
2023/02/27 07:27:23;;;;;;;;;;;;;;;;;;5092737;28;20365;-67
2023/02/27 07:29:49;;;;;;;;;;;;;;;;;;5088430;28;20273;-67
2023/02/27 07:32:15;;;;;;;;;;;;;;;;;;5087183;28;20062;-66
2023/02/27 07:34:41;;;;;;;;;;;;;;;;;;5092204;28;20292;-65
2023/02/27 07:37:07;;;;;;;;;;;;;;;;;;5092757;28;19912;-66
2023/02/27 07:39:33;;;;;;;;;;;;;;;;;;5092237;28;19927;-66
2023/02/27 07:42:02;;;;;;;;;;;;;;;;;;5093097;28;19912;-67
2023/02/27 07:44:28;;;;;;;;;;;;;;;;;;5092689;28;19908;-65
2023/02/27 07:46:54;;;;;;;;;;;;;;;;;;5089795;28;20015;-67
2023/02/27 07:49:20;;;;;;;;;;;;;;;;;;5090770;28;19919;-66
2023/02/27 07:51:46;;;;;;;;;;;;;;;;;;5091494;28;19916;-66
2023/02/27 07:54:12;;;;;;;;;;;;;;;;;;5074551;28;19909;-65
2023/02/27 07:56:38;;;;;;;;;;;;;;;;;;5073912;28;19908;-68
2023/02/27 07:59:04;;;;;;;;;;;;;;;;;;5091723;28;20369;-66
2023/02/27 08:01:31;;;;;;;;;;;;;;;;;;5093840;28;19919;-67
2023/02/27 08:03:57;;;;;;;;;;;;;;;;;;5075050;28;20360;-67
2023/02/27 08:06:23;;;;;;;;;;;;;;;;;;5074293;28;20376;-67
2023/02/27 08:08:49;;;;;;;;;;;;;;;;;;5092462;28;19969;-69
2023/02/27 08:11:19;;;;;;;;;;;;;;;;;;5092399;28;19912;-70
2023/02/27 08:13:45;;;;;;;;;;;;;;;;;;5091325;28;19908;-70
2023/02/27 08:16:11;;;;;;;;;;;;;;;;;;5091987;28;19967;-69
2023/02/27 08:18:37;;;;;;;;;;;;;;;;;;5092649;28;19924;-68
2023/02/27 08:21:06;;;;;;;;;;;;;;;;;;5072790;28;19960;-69
2023/02/27 08:23:33;;;;;;;;;;;;;;;;;;5092833;28;19931;-71
2023/02/27 08:25:59;;;;;;;;;;;;;;;;;;5092241;28;19912;-68
2023/02/27 08:28:26;;;;;;;;;;;;;;;;;;5073169;28;19935;-70
2023/02/27 08:30:52;;;;;;;;;;;;;;;;;;5091661;28;19912;-70
2023/02/27 08:33:45;;;;;;;;;;;;;;;;;;5102100;27;19923;-70
2023/02/27 08:36:11;;;;;;;;;;;;;;;;;;5103544;28;19960;-70
2023/02/27 08:38:37;;;;;;;;;;;;;;;;;;5102778;28;20317;-70
2023/02/27 08:41:03;;;;;;;;;;;;;;;;;;5102363;28;20534;-70
2023/02/27 08:43:29;;;;;;;;;;;;;;;;;;5104776;28;20304;-69
2023/02/27 08:45:55;;;;;;;;;;;;;;;;;;5106617;28;19935;-68
2023/02/27 08:50:24;;;;;;;;;;;;;;;;;;5046474;28;20311;-70
2023/02/27 08:55:18;;;;;;;;;;;;;;;;;;5085960;28;19923;-71
2023/02/27 08:57:44;;;;;;;;;;;;;;;;;;5084626;28;19922;-71
2023/02/27 09:01:26;;;;;;;;;;;;;;;;;;5105228;27;19920;-70
2023/02/27 09:05:19;;;;;;;;;;;;;;;;;;5086232;28;20303;-70
2023/02/27 09:07:46;;;;;;;;;;;;;;;;;;5085878;28;19916;-71
2023/02/27 09:13:10;;;;;;;;;;;;;;;;;;5128187;27;20004;-71
2023/02/27 09:19:32;;;;;;;;;;;;;;;;;;5086059;27;20279;-68
2023/02/27 09:21:58;;;;;;;;;;;;;;;;;;5086169;28;19916;-70
2023/02/27 09:24:55;;;;;;;;;;;;;;;;;;5116706;27;19923;-71
2023/02/27 09:27:22;;;;;;;;;;;;;;;;;;5101470;27;20344;-70
2023/02/27 09:29:54;;;;;;;;;;;;;;;;;;5107784;28;19919;-71
2023/02/27 09:34:24;;;;;;;;;;;;;;;;;;5170654;27;20556;-71
2023/02/27 09:36:51;;;;;;;;;;;;;;;;;;5170537;27;20320;-68
2023/02/27 09:39:16;;;;;;;;;;;;;;;;;;5168948;27;19911;-69
2023/02/27 09:42:16;;;;;;;;;;;;;;;;;;5106897;27;19922;-71
2023/02/27 09:48:50;;;;;;;;;;;;;;;;;;5085504;27;19916;-69
2023/02/27 09:51:16;;;;;;;;;;;;;;;;;;5084228;28;19917;-68
2023/02/27 09:53:42;;;;;;;;;;;;;;;;;;5086287;28;19970;-73
2023/02/27 09:59:45;;;;;;;;;;;;;;;;;;5100057;27;19938;-71
2023/02/27 10:02:11;;;;;;;;;;;;;;;;;;5101772;28;20011;-72
2023/02/27 10:07:09;;;;;;;;;;;;;;;;;;5128522;27;19915;-72
2023/02/27 10:11:42;;;;;;;;;;;;;;;;;;5107153;27;19916;-70
2023/02/27 10:14:08;;;;;;;;;;;;;;;;;;5101531;28;19922;-68
2023/02/27 10:16:34;;;;;;;;;;;;;;;;;;5103169;28;19941;-69
2023/02/27 10:19:01;;;;;;;;;;;;;;;;;;5106535;28;19954;-69
2023/02/27 10:21:27;;;;;;;;;;;;;;;;;;5105789;28;20393;-69
2023/02/27 10:23:53;;;;;;;;;;;;;;;;;;5105741;28;19991;-71
2023/02/27 10:27:50;;;;;;;;;;;;;;;;;;5104821;27;19922;-68
2023/02/27 10:30:16;;;;;;;;;;;;;;;;;;5104291;28;19916;-70
2023/02/27 10:34:45;;;;;;;;;;;;;;;;;;5106328;27;19926;-68
2023/02/27 10:37:11;;;;;;;;;;;;;;;;;;5091224;28;20260;-68
2023/02/27 10:39:37;;;;;;;;;;;;;;;;;;5086105;28;19908;-69
2023/02/27 10:42:03;;;;;;;;;;;;;;;;;;5087111;28;19909;-69
2023/02/27 10:45:53;;;;;;;;;;;;;;;;;;5075249;27;19920;-72
2023/02/27 10:48:19;;;;;;;;;;;;;;;;;;5083867;28;19919;-67
2023/02/27 10:50:45;;;;;;;;;;;;;;;;;;5080753;28;20292;-68
2023/02/27 10:53:11;;;;;;;;;;;;;;;;;;5084741;28;19943;-66
2023/02/27 10:57:59;;;;;;;;;;;;;;;;;;5104157;27;19920;-67
2023/02/27 11:01:48;;;;;;;;;;;;;;;;;;5087571;27;20303;-68
2023/02/27 11:15:55;;;;;;;;;;;;;;;;;;5082768;27;20196;-70
2023/02/27 11:18:24;;;;;;;;;;;;;;;;;;5076604;28;19916;-67
2023/02/27 11:23:26;;;;;;;;;;;;;;;;;;5117493;27;19917;-65
2023/02/27 11:25:51;;;;;;;;;;;;;;;;;;5086126;28;19923;-65
2023/02/27 11:29:18;;;;;;;;;;;;;;;;;;5106389;27;19922;-67
2023/02/27 11:31:44;;;;;;;;;;;;;;;;;;5105040;28;19912;-68
2023/02/27 11:34:10;;;;;;;;;;;;;;;;;;5107116;28;19912;-69
2023/02/27 11:40:42;;;;;;;;;;;;;;;;;;5086794;27;19918;-65
2023/02/27 11:43:07;;;;;;;;;;;;;;;;;;5081772;28;19916;-66
2023/02/27 11:46:03;;;;;;;;;;;;;;;;;;5087496;27;19912;-66
2023/02/27 11:48:29;;;;;;;;;;;;;;;;;;5087098;28;20383;-66
2023/02/27 11:51:23;;;;;;;;;;;;;;;;;;5108182;27;19916;-66
2023/02/27 11:53:49;;;;;;;;;;;;;;;;;;5106404;28;20398;-67
2023/02/27 11:56:15;;;;;;;;;;;;;;;;;;5105699;28;19912;-69
2023/02/27 11:58:41;;;;;;;;;;;;;;;;;;5104454;28;19919;-69
2023/02/27 12:01:07;;;;;;;;;;;;;;;;;;5104935;28;20394;-73
2023/02/27 12:03:33;;;;;;;;;;;;;;;;;;5117436;28;19911;-76
2023/02/27 12:05:59;;;;;;;;;;;;;;;;;;5127347;27;19908;-76
2023/02/27 12:11:15;;;;;;;;;;;;;;;;;;5087778;28;19916;-73
2023/02/27 12:13:41;;;;;;;;;;;;;;;;;;5085815;28;19916;-74
2023/02/27 12:18:32;;;;;;;;;;;;;;;;;;5109268;27;19916;-70
2023/02/27 12:20:58;;;;;;;;;;;;;;;;;;5108013;28;19926;-71
2023/02/27 12:24:25;;;;;;;;;;;;;;;;;;5088686;27;19917;-76
2023/02/27 12:26:51;;;;;;;;;;;;;;;;;;5088810;28;20407;-77
2023/02/27 12:37:02;;;;;;;;;;;;;;;;;;3547967;27;21842;-80
2023/02/27 12:39:28;;;;;;;;;;;;;;;;;;5036947;28;2078596;-80
2023/02/27 12:45:42;;;;;;;;;;;;;;;;;;5108924;27;19916;-74
2023/02/27 12:48:08;;;;;;;;;;;;;;;;;;5108430;28;19918;-70
2023/02/27 12:54:07;;;;;;;;;;;;;;;;;;5106388;27;20283;-67
2023/02/27 12:56:33;;;;;;;;;;;;;;;;;;5106906;28;19916;-68
2023/02/27 12:58:59;;;;;;;;;;;;;;;;;;5106741;28;19969;-71
2023/02/27 13:05:21;;;;;;;;;;;;;;;;;;5087289;27;19912;-71
2023/02/27 13:11:28;;;;;;;;;;;;;;;;;;5086924;27;20402;-70
2023/02/27 13:16:02;;;;;;;;;;;;;;;;;;5088379;28;19921;-69
2023/02/27 13:18:28;;;;;;;;;;;;;;;;;;5088881;28;19919;-69
2023/02/27 13:24:17;;;;;;;;;;;;;;;;;;5108541;27;20682;-72
2023/02/27 13:26:43;;;;;;;;;;;;;;;;;;5108021;28;19912;-71
2023/02/27 13:29:09;;;;;;;;;;;;;;;;;;5108668;28;19914;-72
2023/02/27 13:31:35;;;;;;;;;;;;;;;;;;5108308;28;20380;-69
2023/02/27 13:34:01;;;;;;;;;;;;;;;;;;5103359;28;20436;-71
2023/02/27 13:36:27;;;;;;;;;;;;;;;;;;5104990;28;19920;-72
2023/02/27 13:38:53;;;;;;;;;;;;;;;;;;5108681;28;19912;-70
2023/02/27 13:41:19;;;;;;;;;;;;;;;;;;5106050;28;19969;-70
2023/02/27 13:43:45;;;;;;;;;;;;;;;;;;5104688;28;19924;-71
2023/02/27 13:46:11;;;;;;;;;;;;;;;;;;5107174;28;19908;-69
2023/02/27 13:48:39;;;;;;;;;;;;;;;;;;5106034;28;19955;-69
2023/02/27 13:55:19;;;;;;;;;;;;;;;;;;5108546;27;19923;-71
2023/02/27 13:57:45;;;;;;;;;;;;;;;;;;5108078;28;20283;-70
2023/02/27 14:01:33;;;;;;;;;;;;;;;;;;5084292;27;19916;-69
2023/02/27 14:04:01;;;;;;;;;;;;;;;;;;5084304;28;19920;-70
2023/02/27 14:06:27;;;;;;;;;;;;;;;;;;5086131;28;19908;-67
2023/02/27 14:08:54;;;;;;;;;;;;;;;;;;5086510;28;19912;-67
2023/02/27 14:11:20;;;;;;;;;;;;;;;;;;5085424;28;19926;-67
2023/02/27 14:13:46;;;;;;;;;;;;;;;;;;5087158;28;19913;-70
2023/02/27 14:17:46;;;;;;;;;;;;;;;;;;5171335;27;19915;-69
2023/02/27 14:22:53;;;;;;;;;;;;;;;;;;5109449;27;20482;-69
2023/02/27 14:27:45;;;;;;;;;;;;;;;;;;5068486;28;20296;-69
2023/02/27 14:30:56;;;;;;;;;;;;;;;;;;5108060;27;19920;-69
2023/02/27 14:33:22;;;;;;;;;;;;;;;;;;5107053;28;19912;-69
2023/02/27 14:35:48;;;;;;;;;;;;;;;;;;5106145;28;20359;-69
2023/02/27 14:38:14;;;;;;;;;;;;;;;;;;5108125;28;19955;-69
2023/02/27 14:41:29;;;;;;;;;;;;;;;;;;5086933;27;19920;-67
2023/02/27 14:44:32;;;;;;;;;;;;;;;;;;5088355;28;19927;-69
2023/02/27 14:46:58;;;;;;;;;;;;;;;;;;5088736;28;19913;-69
2023/02/27 14:49:24;;;;;;;;;;;;;;;;;;5087566;28;19938;-69
2023/02/27 14:53:20;;;;;;;;;;;;;;;;;;5089147;27;20029;-70
2023/02/27 14:56:48;;;;;;;;;;;;;;;;;;5088839;27;19912;-69
2023/02/27 14:59:14;;;;;;;;;;;;;;;;;;5089160;28;19923;-69
2023/02/27 15:01:40;;;;;;;;;;;;;;;;;;5085854;28;19938;-70
2023/02/27 15:04:07;;;;;;;;;;;;;;;;;;5088547;28;19999;-70
2023/02/27 15:07:49;;;;;;;;;;;;;;;;;;5088525;27;19919;-70
2023/02/27 15:10:15;;;;;;;;;;;;;;;;;;5089274;28;20295;-70
2023/02/27 15:12:41;;;;;;;;;;;;;;;;;;5089123;28;19954;-70
2023/02/27 15:15:08;;;;;;;;;;;;;;;;;;5088675;28;19913;-70
2023/02/27 15:17:34;;;;;;;;;;;;;;;;;;5089757;28;19954;-70
2023/02/27 15:20:00;;;;;;;;;;;;;;;;;;5089675;28;19908;-70
2023/02/27 15:22:30;;;;;;;;;;;;;;;;;;5089615;28;20282;-70
2023/02/27 15:24:56;;;;;;;;;;;;;;;;;;5089893;28;19908;-70
2023/02/27 15:27:22;;;;;;;;;;;;;;;;;;5091338;28;19969;-71
2023/02/27 15:29:48;;;;;;;;;;;;;;;;;;5090609;28;20007;-70
2023/02/27 15:32:14;;;;;;;;;;;;;;;;;;5090889;28;19908;-70
2023/02/27 15:34:40;;;;;;;;;;;;;;;;;;5091090;28;19914;-70
2023/02/27 15:37:06;;;;;;;;;;;;;;;;;;5090328;28;19908;-71
2023/02/27 15:39:33;;;;;;;;;;;;;;;;;;5089272;28;20019;-70
2023/02/27 15:41:59;;;;;;;;;;;;;;;;;;5090595;28;19919;-70
2023/02/27 15:44:25;;;;;;;;;;;;;;;;;;5088837;28;20002;-70
2023/02/27 15:46:51;;;;;;;;;;;;;;;;;;5090481;28;19916;-70
2023/02/27 15:49:17;;;;;;;;;;;;;;;;;;5090548;28;20254;-70
2023/02/27 15:51:42;;;;;;;;;;;;;;;;;;5090056;28;20326;-70
2023/02/27 15:54:08;;;;;;;;;;;;;;;;;;5089164;28;19919;-70
2023/02/27 15:56:35;;;;;;;;;;;;;;;;;;5089070;28;19940;-70
2023/02/27 15:59:01;;;;;;;;;;;;;;;;;;5088672;28;19991;-70
2023/02/27 16:01:31;;;;;;;;;;;;;;;;;;5090359;28;19968;-70
2023/02/27 16:03:56;;;;;;;;;;;;;;;;;;5088987;28;19916;-70
2023/02/27 16:06:22;;;;;;;;;;;;;;;;;;5089877;28;19920;-70
2023/02/27 16:08:48;;;;;;;;;;;;;;;;;;5090168;28;19954;-70
2023/02/27 16:11:14;;;;;;;;;;;;;;;;;;5089814;28;19912;-70
2023/02/27 16:13:40;;;;;;;;;;;;;;;;;;5090191;28;19916;-70
2023/02/27 16:16:06;;;;;;;;;;;;;;;;;;5090047;28;19909;-70
2023/02/27 16:18:34;;;;;;;;;;;;;;;;;;5079798;28;19912;-70
2023/02/27 16:21:00;;;;;;;;;;;;;;;;;;5076528;28;20284;-70
2023/02/27 16:23:30;;;;;;;;;;;;;;;;;;5075276;28;19916;-70
2023/02/27 16:25:56;;;;;;;;;;;;;;;;;;5076228;28;20330;-70
2023/02/27 16:28:22;;;;;;;;;;;;;;;;;;5076342;28;19947;-70
2023/02/27 16:30:48;;;;;;;;;;;;;;;;;;5076321;28;19966;-70
2023/02/27 16:33:14;;;;;;;;;;;;;;;;;;5076075;28;19909;-70
2023/02/27 16:35:40;;;;;;;;;;;;;;;;;;5076453;28;20300;-70
2023/02/27 16:38:06;;;;;;;;;;;;;;;;;;5074793;28;20387;-70
2023/02/27 16:40:32;;;;;;;;;;;;;;;;;;5075620;28;20280;-70
2023/02/27 16:43:00;;;;;;;;;;;;;;;;;;5076090;28;19978;-70
2023/02/27 16:45:26;;;;;;;;;;;;;;;;;;5074566;28;19909;-70
2023/02/27 16:47:52;;;;;;;;;;;;;;;;;;5074364;28;19974;-70
2023/02/27 16:50:18;;;;;;;;;;;;;;;;;;5075909;28;20302;-70
2023/02/27 16:52:43;;;;;;;;;;;;;;;;;;5074573;28;20285;-70
2023/02/27 16:55:09;;;;;;;;;;;;;;;;;;5074123;28;20355;-70
2023/02/27 16:57:35;;;;;;;;;;;;;;;;;;5075648;28;19912;-70
2023/02/27 17:00:02;;;;;;;;;;;;;;;;;;5075680;28;19931;-70
2023/02/27 17:02:28;;;;;;;;;;;;;;;;;;5075256;28;19909;-69
2023/02/27 17:04:54;;;;;;;;;;;;;;;;;;5075380;28;19908;-69
2023/02/27 17:07:20;;;;;;;;;;;;;;;;;;5074923;28;19925;-69
2023/02/27 17:09:45;;;;;;;;;;;;;;;;;;5075261;28;19912;-69
2023/02/27 17:12:12;;;;;;;;;;;;;;;;;;5075439;28;19991;-69
2023/02/27 17:14:38;;;;;;;;;;;;;;;;;;5074953;28;20218;-69
2023/02/27 17:17:04;;;;;;;;;;;;;;;;;;5074056;28;20023;-69
2023/02/27 17:19:30;;;;;;;;;;;;;;;;;;5075222;28;19908;-69
2023/02/27 17:21:56;;;;;;;;;;;;;;;;;;5073532;28;19999;-69
2023/02/27 17:24:22;;;;;;;;;;;;;;;;;;5073884;28;19909;-69
2023/02/27 17:26:48;;;;;;;;;;;;;;;;;;5073730;28;19923;-70
2023/02/27 17:29:14;;;;;;;;;;;;;;;;;;5073689;28;20261;-70
2023/02/27 17:31:40;;;;;;;;;;;;;;;;;;5075122;28;19927;-70
2023/02/27 17:34:07;;;;;;;;;;;;;;;;;;5075102;28;19939;-69
2023/02/27 17:36:33;;;;;;;;;;;;;;;;;;5074565;28;19991;-68
2023/02/27 17:39:00;;;;;;;;;;;;;;;;;;5075329;28;20368;-68
2023/02/27 17:41:26;;;;;;;;;;;;;;;;;;5074828;28;19908;-68
2023/02/27 17:43:54;;;;;;;;;;;;;;;;;;5074433;28;20317;-69
2023/02/27 17:46:20;;;;;;;;;;;;;;;;;;5074570;28;20285;-69
2023/02/27 17:48:45;;;;;;;;;;;;;;;;;;5073290;28;19915;-69
2023/02/27 17:51:11;;;;;;;;;;;;;;;;;;5074368;28;19944;-69
2023/02/27 17:53:37;;;;;;;;;;;;;;;;;;5073211;28;19958;-69
2023/02/27 17:56:03;;;;;;;;;;;;;;;;;;5073268;28;19987;-69
2023/02/27 17:58:32;;;;;;;;;;;;;;;;;;5074098;28;19962;-70
2023/02/27 18:01:07;;;;;;;;;;;;;;;;;;5074450;28;19953;-70
2023/02/27 18:03:33;;;;;;;;;;;;;;;;;;5073989;28;19912;-70
2023/02/27 18:05:59;;;;;;;;;;;;;;;;;;5073270;28;19927;-70
2023/02/27 18:08:25;;;;;;;;;;;;;;;;;;5074396;28;20269;-68
2023/02/27 18:10:51;;;;;;;;;;;;;;;;;;5073857;28;19951;-68
2023/02/27 18:13:17;;;;;;;;;;;;;;;;;;5074170;28;19909;-69
2023/02/27 18:15:43;;;;;;;;;;;;;;;;;;5072878;28;19908;-69
2023/02/27 18:18:09;;;;;;;;;;;;;;;;;;5073944;28;19998;-69
2023/02/27 18:20:35;;;;;;;;;;;;;;;;;;5072873;28;19913;-70
2023/02/27 18:23:01;;;;;;;;;;;;;;;;;;5074086;28;19908;-69
2023/02/27 18:25:28;;;;;;;;;;;;;;;;;;5073078;28;20332;-69
2023/02/27 18:27:54;;;;;;;;;;;;;;;;;;5074065;28;19923;-69
2023/02/27 18:30:20;;;;;;;;;;;;;;;;;;5072639;28;20007;-69